Time;durP1;ratioP1;P1;durP2;ratioP2;P2;SDS_P1;SDS_P2;PMS_P1;PMS_P2;Temp;Humidity;BMP_temperature;BMP_pressure;BME280_temperature;BME280_humidity;BME280_pressure;Samples;Min_cycle;Max_cycle;Signal;HPM_P1;HPM_P2
2022/10/05 03:02:53;;;;;;;0.90;0.90;;;12.90;86.70;;;;;;5121060;23;20504;-73
2022/10/05 03:05:25;;;;;;;0.97;0.97;;;13.00;86.40;;;;;;4996642;28;20837;-73
2022/10/05 03:07:58;;;;;;;0.90;0.90;;;13.10;85.60;;;;;;4996901;28;20496;-73
2022/10/05 03:10:32;;;;;;;0.90;0.80;;;13.20;85.20;;;;;;4996816;28;20432;-73
2022/10/05 03:13:08;;;;;;;1.03;0.93;;;13.20;84.90;;;;;;4996824;28;20492;-72
2022/10/05 03:15:51;;;;;;;0.90;0.90;;;13.20;84.40;;;;;;4998837;28;20452;-73
2022/10/05 03:18:31;;;;;;;1.00;1.00;;;13.20;84.30;;;;;;4996683;28;20897;-73
2022/10/05 03:21:06;;;;;;;0.80;0.80;;;13.30;84.00;;;;;;4996992;28;20469;-73
2022/10/05 03:23:44;;;;;;;0.80;0.80;;;13.30;83.60;;;;;;4996881;28;20464;-75
2022/10/05 03:26:21;;;;;;;0.80;0.80;;;13.30;83.50;;;;;;4997594;28;20468;-73
2022/10/05 03:28:58;;;;;;;0.90;0.90;;;13.30;83.80;;;;;;4996737;28;20437;-73
2022/10/05 03:31:31;;;;;;;0.90;0.90;;;13.20;83.80;;;;;;4996575;28;20469;-73
2022/10/05 03:34:04;;;;;;;1.30;1.20;;;13.20;83.90;;;;;;4996598;28;20429;-73
2022/10/05 03:36:43;;;;;;;1.20;1.10;;;13.10;84.80;;;;;;4996586;28;20433;-73
2022/10/05 03:39:16;;;;;;;1.30;1.30;;;13.20;84.90;;;;;;4996507;28;20429;-73
2022/10/05 03:41:47;;;;;;;1.30;1.20;;;13.20;84.80;;;;;;4996400;28;20481;-73
2022/10/05 03:44:35;;;;;;;1.30;1.20;;;13.30;84.40;;;;;;4996348;28;20477;-73
2022/10/05 03:47:11;;;;;;;1.10;1.00;;;13.30;84.90;;;;;;4996391;28;20441;-73
2022/10/05 03:49:51;;;;;;;1.10;1.10;;;13.30;84.60;;;;;;4996434;28;20784;-74
2022/10/05 03:52:24;;;;;;;0.90;0.90;;;13.30;84.20;;;;;;4996151;28;20472;-74
2022/10/05 03:54:55;;;;;;;1.07;1.07;;;13.30;83.80;;;;;;4996231;28;20430;-74
2022/10/05 03:57:25;;;;;;;1.17;1.10;;;13.30;83.70;;;;;;4996085;28;20484;-73
2022/10/05 04:00:00;;;;;;;1.10;1.00;;;13.30;83.30;;;;;;4995953;28;20516;-74
2022/10/05 04:02:29;;;;;;;1.00;1.00;;;13.20;83.20;;;;;;4995656;28;20492;-73
2022/10/05 04:05:02;;;;;;;1.00;0.90;;;13.20;83.20;;;;;;4995914;28;20448;-73
2022/10/05 04:07:36;;;;;;;0.80;0.80;;;13.20;83.10;;;;;;4994961;28;20452;-74
2022/10/05 04:10:09;;;;;;;0.90;0.80;;;13.20;83.10;;;;;;4996071;28;20437;-73
2022/10/05 04:12:41;;;;;;;0.80;0.80;;;13.10;83.10;;;;;;4995807;28;20488;-73
2022/10/05 04:15:17;;;;;;;0.87;0.87;;;13.10;83.10;;;;;;4995854;28;20465;-73
2022/10/05 04:17:47;;;;;;;0.90;0.90;;;13.00;83.10;;;;;;4995564;28;20913;-73
2022/10/05 04:20:19;;;;;;;0.87;0.87;;;13.00;83.10;;;;;;4996013;28;20489;-73
2022/10/05 04:22:53;;;;;;;0.90;0.90;;;13.00;82.80;;;;;;4994850;28;20528;-73
2022/10/05 04:25:25;;;;;;;1.77;1.00;;;13.00;82.90;;;;;;4995309;28;20438;-74
2022/10/05 04:28:00;;;;;;;1.10;0.90;;;13.00;82.90;;;;;;4995311;28;20433;-72
2022/10/05 04:30:27;;;;;;;1.00;1.00;;;12.90;84.30;;;;;;4995226;28;20451;-73
2022/10/05 04:32:56;;;;;;;0.90;0.90;;;12.90;84.40;;;;;;4994858;28;20822;-73
2022/10/05 04:35:38;;;;;;;0.80;0.80;;;12.80;85.60;;;;;;4995300;28;20501;-73
2022/10/05 04:38:19;;;;;;;1.00;1.00;;;12.70;86.10;;;;;;4995076;28;20456;-74
2022/10/05 04:41:03;;;;;;;0.90;0.90;;;12.70;86.20;;;;;;4994920;28;20469;-73
2022/10/05 04:43:41;;;;;;;0.90;0.90;;;12.80;85.80;;;;;;4994879;28;20520;-73
2022/10/05 04:46:23;;;;;;;0.87;0.87;;;12.80;86.20;;;;;;4994978;28;20524;-72
2022/10/05 04:49:06;;;;;;;1.10;1.10;;;12.70;86.60;;;;;;4994606;28;20430;-73
2022/10/05 04:51:42;;;;;;;1.07;1.07;;;12.70;86.80;;;;;;4994767;28;20527;-72
2022/10/05 04:54:19;;;;;;;1.20;1.20;;;12.80;86.30;;;;;;4994816;28;20425;-72
2022/10/05 04:56:52;;;;;;;1.03;1.03;;;12.90;85.80;;;;;;4994836;28;20436;-73
2022/10/05 04:59:46;;;;;;;0.90;0.90;;;12.90;85.40;;;;;;4994791;28;20433;-73
2022/10/05 05:02:21;;;;;;;1.00;1.00;;;13.00;84.80;;;;;;4994377;28;20489;-73
2022/10/05 05:05:16;;;;;;;1.30;1.20;;;12.90;84.80;;;;;;4994594;28;20465;-74
2022/10/05 05:07:59;;;;;;;0.90;0.90;;;12.90;84.70;;;;;;4994647;28;20433;-73
2022/10/05 05:14:40;;;;;;;1.03;0.90;;;12.90;84.40;;;;;;4915254;29;21033;-73
2022/10/05 05:17:21;;;;;;;0.90;0.90;;;12.90;84.10;;;;;;4935121;29;20459;-73
2022/10/05 05:19:58;;;;;;;1.03;1.03;;;12.80;84.10;;;;;;4991049;28;20453;-73
2022/10/05 05:22:34;;;;;;;0.97;0.90;;;12.80;84.10;;;;;;4993953;28;20892;-73
2022/10/05 05:25:18;;;;;;;2.77;1.10;;;12.70;84.00;;;;;;4994149;28;20468;-74
2022/10/05 05:27:52;;;;;;;1.07;1.00;;;12.60;84.40;;;;;;4994341;28;20452;-74
2022/10/05 05:30:22;;;;;;;1.00;1.00;;;12.50;85.20;;;;;;4994185;28;20429;-74
2022/10/05 05:33:04;;;;;;;0.93;0.93;;;12.40;87.30;;;;;;4994384;28;20457;-73
2022/10/05 05:35:41;;;;;;;1.30;1.20;;;12.30;88.60;;;;;;4994143;28;20433;-74
2022/10/05 05:38:20;;;;;;;1.10;1.10;;;12.40;88.80;;;;;;4994173;28;20499;-74
2022/10/05 05:40:59;;;;;;;1.37;1.30;;;12.40;89.90;;;;;;4994148;28;20527;-74
2022/10/05 05:43:32;;;;;;;0.90;0.90;;;12.50;89.50;;;;;;4994077;28;20470;-74
2022/10/05 05:46:04;;;;;;;1.10;1.10;;;12.70;89.40;;;;;;4994091;28;20437;-74
2022/10/05 05:48:37;;;;;;;1.13;1.07;;;12.90;88.40;;;;;;4994035;28;20434;-73
2022/10/05 05:51:08;;;;;;;0.90;0.90;;;13.00;88.20;;;;;;4993948;28;20892;-73
2022/10/05 05:53:39;;;;;;;1.00;1.00;;;13.20;87.40;;;;;;4994018;28;20517;-73
2022/10/05 05:56:11;;;;;;;1.00;1.00;;;13.30;86.50;;;;;;4994083;28;20454;-73
2022/10/05 05:58:45;;;;;;;3.43;1.27;;;13.40;85.50;;;;;;4993916;28;20437;-73
2022/10/05 06:01:21;;;;;;;0.80;0.80;;;13.40;85.40;;;;;;4993629;28;20908;-72
2022/10/05 06:03:52;;;;;;;1.00;1.00;;;13.30;85.70;;;;;;4993828;28;20556;-72
2022/10/05 06:06:22;;;;;;;0.90;0.90;;;13.20;86.50;;;;;;4993841;28;20426;-74
2022/10/05 06:08:51;;;;;;;0.90;0.90;;;13.20;86.90;;;;;;4993733;28;20457;-74
2022/10/05 06:11:23;;;;;;;0.80;0.80;;;13.20;86.80;;;;;;4993724;28;20490;-74
2022/10/05 06:13:51;;;;;;;0.80;0.80;;;13.70;86.80;;;;;;4993856;28;20484;-74
2022/10/05 06:16:24;;;;;;;1.03;0.90;;;14.80;84.50;;;;;;4993796;28;20543;-74
2022/10/05 06:18:55;;;;;;;1.00;1.00;;;16.10;79.30;;;;;;4993889;28;20464;-75
2022/10/05 06:21:28;;;;;;;0.80;0.80;;;17.60;74.40;;;;;;4993792;28;20555;-74
2022/10/05 06:24:00;;;;;;;0.80;0.80;;;18.60;70.30;;;;;;4993504;28;20472;-74
2022/10/05 06:27:07;;;;;;;0.80;0.80;;;19.60;67.90;;;;;;4993693;28;20441;-75
2022/10/05 06:29:49;;;;;;;0.70;0.70;;;20.90;64.40;;;;;;4993760;28;20437;-74
2022/10/05 06:32:25;;;;;;;0.70;0.70;;;21.60;62.80;;;;;;4996966;28;20465;-74
2022/10/05 06:34:57;;;;;;;0.70;0.70;;;21.80;60.70;;;;;;4997078;28;20774;-75
2022/10/05 06:37:40;;;;;;;0.70;0.70;;;22.40;60.60;;;;;;4997280;28;20454;-74
2022/10/05 06:40:20;;;;;;;0.80;0.73;;;23.20;57.50;;;;;;4997375;28;20432;-75
2022/10/05 06:43:03;;;;;;;0.90;0.73;;;23.40;57.30;;;;;;4996905;28;21003;-75
2022/10/05 06:45:42;;;;;;;0.77;0.77;;;24.10;56.30;;;;;;4996880;28;20468;-75
2022/10/05 06:48:18;;;;;;;0.60;0.60;;;24.70;54.50;;;;;;4997131;28;20444;-75
2022/10/05 06:50:50;;;;;;;0.70;0.70;;;24.40;54.40;;;;;;4996841;28;20987;-75
2022/10/05 06:53:26;;;;;;;0.70;0.70;;;24.00;55.50;;;;;;4997155;28;20438;-75
2022/10/05 06:56:01;;;;;;;0.77;0.77;;;24.80;53.80;;;;;;4996813;28;20923;-75
2022/10/05 06:58:45;;;;;;;0.70;0.70;;;25.20;53.80;;;;;;4996953;28;20444;-75
2022/10/05 07:01:18;;;;;;;0.80;0.80;;;26.00;52.50;;;;;;4996489;28;20491;-74
2022/10/05 07:03:57;;;;;;;0.63;0.63;;;26.70;51.90;;;;;;4996410;28;20976;-75
2022/10/05 07:06:30;;;;;;;0.60;0.60;;;27.10;50.30;;;;;;4997010;28;20437;-75
2022/10/05 07:09:14;;;;;;;0.70;0.70;;;27.80;48.60;;;;;;4996795;28;20488;-75
2022/10/05 07:12:22;;;;;;;0.80;0.63;;;28.70;48.00;;;;;;4996640;28;20495;-74
2022/10/05 07:15:01;;;;;;;0.70;0.70;;;29.70;45.70;;;;;;4996438;28;20846;-75
2022/10/05 07:17:44;;;;;;;0.60;0.60;;;28.90;45.50;;;;;;4996421;28;20939;-74
2022/10/05 07:20:17;;;;;;;0.70;0.60;;;28.40;46.80;;;;;;4996637;28;20512;-75
2022/10/05 07:23:03;;;;;;;0.70;0.70;;;27.50;48.00;;;;;;4996186;28;20964;-75
2022/10/05 07:25:37;;;;;;;0.70;0.70;;;26.40;49.60;;;;;;4996443;28;20469;-75
2022/10/05 07:28:07;;;;;;;1.10;0.70;;;26.00;50.90;;;;;;4996473;28;20446;-74
2022/10/05 07:30:44;;;;;;;0.70;0.70;;;26.40;50.60;;;;;;4997108;28;20500;-75
2022/10/05 07:33:16;;;;;;;0.60;0.60;;;26.80;49.50;;;;;;4996544;28;20446;-74
2022/10/05 07:38:40;;;;;;;0.70;0.60;;;26.70;51.10;;;;;;4999135;28;20405;-74
2022/10/05 07:41:13;;;;;;;0.70;0.70;;;26.10;51.90;;;;;;4997891;28;20465;-74
2022/10/05 07:43:46;;;;;;;0.60;0.60;;;26.00;52.30;;;;;;4996081;28;20441;-75
2022/10/05 07:46:26;;;;;;;1.00;0.70;;;25.20;54.10;;;;;;4996232;28;20505;-75
2022/10/05 07:49:02;;;;;;;0.60;0.60;;;24.50;55.50;;;;;;4996153;28;20429;-75
2022/10/05 07:51:34;;;;;;;0.70;0.70;;;23.50;57.80;;;;;;4995990;28;20488;-75
2022/10/05 07:54:14;;;;;;;0.70;0.70;;;22.40;60.70;;;;;;4996076;28;20450;-75
2022/10/05 07:56:43;;;;;;;0.70;0.70;;;22.00;62.70;;;;;;4995972;28;20465;-75
2022/10/05 07:59:18;;;;;;;0.90;0.60;;;21.10;63.50;;;;;;4995617;28;20477;-75
2022/10/05 08:01:53;;;;;;;0.70;0.70;;;20.30;66.60;;;;;;4995505;28;20476;-75
2022/10/05 08:04:24;;;;;;;0.70;0.70;;;19.90;68.60;;;;;;4995692;28;20468;-75
2022/10/05 08:06:53;;;;;;;0.60;0.60;;;19.60;70.20;;;;;;4995948;28;20442;-75
2022/10/05 08:09:36;;;;;;;0.70;0.70;;;19.30;71.10;;;;;;4995636;28;20521;-75
2022/10/05 08:12:18;;;;;;;0.70;0.70;;;18.80;73.10;;;;;;4995557;28;20492;-74
2022/10/05 08:14:52;;;;;;;0.70;0.70;;;18.90;73.20;;;;;;4995563;28;20430;-75
2022/10/05 08:17:31;;;;;;;0.70;0.70;;;19.00;73.40;;;;;;4995588;28;20508;-74
2022/10/05 08:20:06;;;;;;;1.17;0.90;;;19.20;70.50;;;;;;4995608;28;20465;-75
2022/10/05 08:22:43;;;;;;;0.70;0.63;;;19.00;71.50;;;;;;4995074;28;20980;-75
2022/10/05 08:25:19;;;;;;;0.80;0.80;;;19.10;70.70;;;;;;4995324;28;20514;-74
2022/10/05 08:27:50;;;;;;;0.73;0.73;;;19.20;70.40;;;;;;4995357;28;20437;-75
2022/10/05 08:30:17;;;;;;;0.70;0.70;;;19.20;71.20;;;;;;4995341;28;20441;-75
2022/10/05 08:32:53;;;;;;;0.70;0.60;;;19.40;70.00;;;;;;4995115;28;20469;-75
2022/10/05 08:35:32;;;;;;;0.60;0.60;;;19.40;71.70;;;;;;4995253;28;20525;-75
2022/10/05 08:38:00;;;;;;;0.80;0.70;;;19.50;72.30;;;;;;4995217;28;20446;-75
2022/10/05 08:40:50;;;;;;;0.60;0.60;;;19.20;73.10;;;;;;4995023;28;20456;-75
2022/10/05 08:43:43;;;;;;;0.70;0.70;;;19.30;74.40;;;;;;4995093;28;20441;-75
2022/10/05 08:46:38;;;;;;;0.70;0.60;;;19.20;73.60;;;;;;4994939;28;20840;-75
2022/10/05 08:49:31;;;;;;;0.60;0.60;;;19.10;72.70;;;;;;4994684;28;20800;-74
2022/10/05 08:52:22;;;;;;;1.00;0.60;;;19.20;72.50;;;;;;4994915;28;20469;-75
2022/10/05 08:55:24;;;;;;;0.60;0.60;;;19.30;73.60;;;;;;4997102;28;20452;-73
2022/10/05 08:58:22;;;;;;;0.90;0.60;;;19.30;72.30;;;;;;4997290;28;20441;-75
2022/10/05 09:00:59;;;;;;;0.60;0.60;;;19.30;71.10;;;;;;4996349;28;20868;-77
2022/10/05 09:03:55;;;;;;;0.70;0.67;;;19.30;69.80;;;;;;4999878;28;20444;-77
2022/10/05 09:06:51;;;;;;;0.60;0.60;;;19.20;70.10;;;;;;4999989;28;20444;-75
2022/10/05 09:09:37;;;;;;;0.60;0.60;;;19.20;72.30;;;;;;4999367;28;20441;-77
2022/10/05 09:12:30;;;;;;;0.70;0.60;;;19.20;71.60;;;;;;4998285;28;20469;-75
2022/10/05 09:15:17;;;;;;;0.60;0.50;;;19.10;70.20;;;;;;4995991;28;20434;-76
2022/10/05 09:18:13;;;;;;;0.70;0.63;;;18.90;70.90;;;;;;4994152;28;20487;-76
2022/10/05 09:20:52;;;;;;;0.60;0.57;;;19.00;69.80;;;;;;4994405;28;20449;-76
2022/10/05 09:23:35;;;;;;;0.70;0.60;;;19.00;72.30;;;;;;4994402;28;20473;-76
2022/10/05 09:26:08;;;;;;;0.70;0.60;;;19.10;71.20;;;;;;4994267;28;20483;-76
2022/10/05 09:28:45;;;;;;;0.60;0.60;;;18.90;71.30;;;;;;4994020;28;20432;-76
2022/10/05 09:31:42;;;;;;;0.60;0.60;;;18.80;71.60;;;;;;4994227;28;20473;-76
2022/10/05 09:34:47;;;;;;;0.60;0.53;;;19.00;71.80;;;;;;4993024;28;20460;-76
2022/10/05 09:38:08;;;;;;;0.60;0.60;;;19.10;72.10;;;;;;4991579;28;20500;-76
2022/10/05 09:41:12;;;;;;;0.70;0.60;;;19.20;72.50;;;;;;4933936;29;20435;-76
2022/10/05 09:44:26;;;;;;;0.60;0.60;;;19.10;72.60;;;;;;4933917;29;20448;-76
2022/10/05 09:47:23;;;;;;;0.60;0.60;;;19.40;73.30;;;;;;4994830;28;20456;-75
2022/10/05 09:50:13;;;;;;;0.60;0.50;;;19.50;72.60;;;;;;4997208;28;20451;-74
2022/10/05 09:53:03;;;;;;;0.93;0.53;;;19.60;72.20;;;;;;4994266;28;20480;-74
2022/10/05 09:55:59;;;;;;;0.60;0.60;;;19.60;71.20;;;;;;4994076;28;20429;-74
2022/10/05 09:59:09;;;;;;;0.70;0.60;;;19.70;72.40;;;;;;4993952;28;20469;-75
2022/10/05 10:01:59;;;;;;;0.80;0.70;;;19.80;71.60;;;;;;4968563;28;21064;-75
2022/10/05 10:04:42;;;;;;;0.77;0.60;;;20.10;70.50;;;;;;4993850;28;20429;-74
2022/10/05 10:07:44;;;;;;;0.70;0.70;;;20.10;70.80;;;;;;4997876;28;20429;-74
2022/10/05 10:10:51;;;;;;;0.60;0.50;;;20.10;69.70;;;;;;4997851;28;20447;-75
2022/10/05 10:13:48;;;;;;;0.60;0.50;;;20.20;69.90;;;;;;4998006;28;20476;-75
2022/10/05 10:16:41;;;;;;;0.60;0.60;;;20.40;69.60;;;;;;4972688;28;20473;-75
2022/10/05 10:19:24;;;;;;;0.60;0.50;;;20.40;69.50;;;;;;4977104;28;20476;-75
2022/10/05 10:22:23;;;;;;;0.70;0.60;;;20.50;69.30;;;;;;5000247;28;20473;-76
2022/10/05 10:25:20;;;;;;;1.10;0.60;;;20.60;70.80;;;;;;4997514;28;20465;-75
2022/10/05 10:28:04;;;;;;;0.60;0.53;;;20.80;68.60;;;;;;4997563;28;20544;-75
2022/10/05 10:31:01;;;;;;;0.90;0.60;;;20.90;69.60;;;;;;4997595;28;20429;-74
2022/10/05 10:34:04;;;;;;;0.60;0.60;;;21.10;68.00;;;;;;4999466;28;20437;-79
2022/10/05 10:36:50;;;;;;;0.70;0.60;;;21.20;69.20;;;;;;4998393;28;20433;-78
2022/10/05 10:39:24;;;;;;;1.20;0.60;;;21.40;67.00;;;;;;4998004;28;20445;-77
2022/10/05 10:42:13;;;;;;;0.97;0.57;;;21.30;66.30;;;;;;4997419;28;20844;-77
2022/10/05 10:45:13;;;;;;;0.60;0.60;;;21.00;66.50;;;;;;4997243;28;20489;-78
2022/10/05 10:47:51;;;;;;;0.70;0.60;;;21.10;67.30;;;;;;4987049;28;20460;-78
2022/10/05 10:50:52;;;;;;;0.60;0.50;;;21.10;67.60;;;;;;4997273;28;20556;-77
2022/10/05 10:54:04;;;;;;;0.70;0.60;;;21.10;67.40;;;;;;4997436;28;20507;-78
2022/10/05 10:56:58;;;;;;;0.60;0.50;;;21.10;67.80;;;;;;4997605;28;20429;-79
2022/10/05 11:00:04;;;;;;;0.60;0.50;;;21.20;68.20;;;;;;4997822;28;20487;-78
2022/10/05 11:03:03;;;;;;;1.37;0.50;;;21.30;67.00;;;;;;4996903;28;20559;-77
2022/10/05 11:05:49;;;;;;;0.70;0.60;;;21.50;67.90;;;;;;4996903;28;20511;-78
2022/10/05 11:08:36;;;;;;;0.60;0.50;;;21.80;66.90;;;;;;4997139;28;20448;-78
2022/10/05 11:11:23;;;;;;;0.60;0.60;;;21.90;65.50;;;;;;4997138;28;20936;-77
2022/10/05 11:14:10;;;;;;;0.80;0.60;;;22.00;66.00;;;;;;4997137;28;20429;-78
2022/10/05 11:17:15;;;;;;;0.60;0.50;;;22.20;64.10;;;;;;4996295;28;20438;-77
2022/10/05 11:20:20;;;;;;;0.80;0.80;;;22.20;65.50;;;;;;4995188;28;20512;-77
2022/10/05 11:22:58;;;;;;;0.60;0.50;;;22.30;65.20;;;;;;4970931;28;20477;-78
2022/10/05 11:25:55;;;;;;;0.60;0.60;;;22.40;64.30;;;;;;4997513;28;20881;-79
2022/10/05 11:28:42;;;;;;;0.83;0.60;;;22.30;64.60;;;;;;4997545;28;20496;-78
2022/10/05 11:31:52;;;;;;;0.60;0.50;;;22.40;64.80;;;;;;4998018;28;20473;-77
2022/10/05 11:34:47;;;;;;;0.60;0.60;;;22.60;65.20;;;;;;4983791;28;20461;-78
2022/10/05 11:37:33;;;;;;;0.70;0.60;;;22.50;65.00;;;;;;4997567;28;20422;-78
2022/10/05 11:40:25;;;;;;;0.70;0.50;;;22.60;64.50;;;;;;4997472;28;20444;-79
2022/10/05 11:43:12;;;;;;;0.70;0.60;;;22.70;65.20;;;;;;4997074;28;20465;-79
2022/10/05 11:45:55;;;;;;;0.60;0.60;;;22.90;64.50;;;;;;5003355;28;20485;-78
2022/10/05 11:48:39;;;;;;;0.60;0.60;;;23.10;65.00;;;;;;5004087;28;20484;-78
2022/10/05 11:51:37;;;;;;;0.70;0.70;;;23.40;63.80;;;;;;4996503;28;20469;-78
2022/10/05 11:54:21;;;;;;;0.60;0.60;;;23.70;61.80;;;;;;4995817;28;20464;-78
2022/10/05 11:56:54;;;;;;;0.70;0.60;;;23.80;61.50;;;;;;4997009;28;20444;-77
2022/10/05 11:59:30;;;;;;;0.60;0.60;;;23.90;62.40;;;;;;4997029;28;20434;-77
2022/10/05 12:02:04;;;;;;;0.60;0.60;;;24.10;62.30;;;;;;4996727;28;20477;-78
2022/10/05 12:04:41;;;;;;;0.60;0.60;;;24.40;63.10;;;;;;4995857;28;20433;-78
2022/10/05 12:07:18;;;;;;;0.80;0.70;;;24.70;62.20;;;;;;4995822;28;20482;-77
2022/10/05 12:10:16;;;;;;;0.80;0.70;;;24.90;60.00;;;;;;4995869;28;20436;-78
2022/10/05 12:12:57;;;;;;;0.60;0.60;;;25.00;59.40;;;;;;4995733;28;20484;-78
2022/10/05 12:15:29;;;;;;;0.60;0.57;;;25.10;60.50;;;;;;4996228;28;20434;-79
2022/10/05 12:18:07;;;;;;;0.90;0.60;;;25.10;59.50;;;;;;5002777;28;20442;-80
2022/10/05 12:20:40;;;;;;;0.60;0.50;;;25.20;59.80;;;;;;5001581;28;21011;-79
2022/10/05 12:23:14;;;;;;;0.60;0.60;;;25.40;59.90;;;;;;5001827;28;20437;-78
2022/10/05 12:25:47;;;;;;;0.70;0.70;;;25.50;58.80;;;;;;5002672;28;20472;-78
2022/10/05 12:28:19;;;;;;;0.90;0.60;;;25.60;58.40;;;;;;4999968;28;20454;-77
2022/10/05 12:31:08;;;;;;;0.80;0.70;;;25.50;57.30;;;;;;4997073;28;20474;-78
2022/10/05 12:33:43;;;;;;;0.60;0.50;;;25.40;57.70;;;;;;4996224;28;20441;-78
2022/10/05 12:36:14;;;;;;;0.60;0.60;;;25.70;57.20;;;;;;4995537;28;20472;-78
2022/10/05 12:38:48;;;;;;;0.60;0.60;;;25.90;55.80;;;;;;4995576;28;20445;-75
2022/10/05 12:41:22;;;;;;;0.60;0.50;;;26.20;54.90;;;;;;4995070;28;20473;-76
2022/10/05 12:44:03;;;;;;;0.60;0.50;;;26.50;53.30;;;;;;4995415;28;20856;-76
2022/10/05 12:46:38;;;;;;;0.60;0.53;;;26.50;52.50;;;;;;4995124;28;20516;-77
2022/10/05 12:49:39;;;;;;;0.73;0.60;;;26.30;48.50;;;;;;4995058;28;20471;-77
2022/10/05 12:52:15;;;;;;;0.60;0.50;;;26.10;47.30;;;;;;4995335;28;20469;-77
2022/10/05 12:54:49;;;;;;;0.80;0.57;;;26.00;49.00;;;;;;4995009;28;20773;-75
2022/10/05 12:57:26;;;;;;;0.60;0.50;;;26.00;47.00;;;;;;4995092;28;20476;-76
2022/10/05 13:00:00;;;;;;;0.60;0.50;;;26.00;48.10;;;;;;4994944;28;20436;-76
2022/10/05 13:02:37;;;;;;;0.60;0.57;;;25.80;47.30;;;;;;4994743;28;20485;-76
2022/10/05 13:05:22;;;;;;;0.60;0.50;;;25.70;48.30;;;;;;4994781;28;20447;-76
2022/10/05 13:08:17;;;;;;;0.60;0.50;;;25.70;49.20;;;;;;4994529;28;20972;-76
2022/10/05 13:10:46;;;;;;;0.60;0.50;;;25.80;49.60;;;;;;4995089;28;20548;-76
2022/10/05 13:13:30;;;;;;;0.70;0.53;;;26.00;48.20;;;;;;4994983;28;20468;-77
2022/10/05 13:16:06;;;;;;;0.70;0.50;;;26.10;48.60;;;;;;4994718;28;20433;-77
2022/10/05 13:18:43;;;;;;;0.60;0.53;;;26.60;48.70;;;;;;4994664;28;20449;-78
2022/10/05 13:21:15;;;;;;;0.60;0.60;;;26.40;47.50;;;;;;4994764;28;20660;-78
2022/10/05 13:23:55;;;;;;;0.60;0.57;;;26.40;47.50;;;;;;4995006;28;20440;-76
2022/10/05 13:26:27;;;;;;;0.60;0.57;;;26.20;48.40;;;;;;4995540;28;20853;-75
2022/10/05 13:29:02;;;;;;;0.60;0.50;;;26.30;47.80;;;;;;4994772;28;20429;-77
2022/10/05 13:31:35;;;;;;;0.63;0.50;;;26.50;47.50;;;;;;4994749;28;20473;-78
2022/10/05 13:34:14;;;;;;;0.60;0.50;;;26.80;46.70;;;;;;4994572;28;20445;-77
2022/10/05 13:36:54;;;;;;;0.70;0.60;;;27.20;47.10;;;;;;4994374;28;20414;-76
2022/10/05 13:39:32;;;;;;;0.60;0.50;;;27.60;46.90;;;;;;4994527;28;20441;-77
2022/10/05 13:42:05;;;;;;;0.60;0.50;;;28.10;45.60;;;;;;4994097;28;20983;-77
2022/10/05 13:44:38;;;;;;;0.60;0.50;;;28.50;43.70;;;;;;4994389;28;20884;-77
2022/10/05 13:47:15;;;;;;;1.30;0.60;;;29.30;42.90;;;;;;4994315;28;20508;-77
2022/10/05 13:49:48;;;;;;;0.60;0.50;;;29.90;41.60;;;;;;4994426;28;20492;-76
2022/10/05 13:52:35;;;;;;;0.70;0.50;;;31.00;41.00;;;;;;4994236;28;20473;-76
2022/10/05 13:55:12;;;;;;;0.83;0.50;;;32.60;38.20;;;;;;4994051;28;20465;-76
2022/10/05 13:57:48;;;;;;;1.00;0.70;;;33.70;37.20;;;;;;4994077;28;20426;-79
2022/10/05 14:00:17;;;;;;;0.60;0.50;;;34.50;35.50;;;;;;5004371;28;20434;-81
2022/10/05 14:02:49;;;;;;;0.60;0.50;;;33.80;36.70;;;;;;5000300;28;20484;-78
2022/10/05 14:05:19;;;;;;;0.70;0.60;;;34.50;37.20;;;;;;5003720;28;20438;-80
2022/10/05 14:07:54;;;;;;;0.60;0.50;;;34.90;35.20;;;;;;5002852;28;20541;-79
2022/10/05 14:10:34;;;;;;;0.60;0.50;;;35.60;34.40;;;;;;5002476;28;20414;-79
2022/10/05 14:13:09;;;;;;;0.60;0.50;;;35.40;34.70;;;;;;5004886;28;20518;-79
2022/10/05 14:15:35;;;;;;;0.60;0.50;;;35.20;34.30;;;;;;5003979;28;20463;-80
2022/10/05 14:21:02;;;;;;;0.60;0.50;;;35.00;35.60;;;;;;5116562;27;1225979;-78
2022/10/05 14:23:30;;;;;;;0.60;0.50;;;34.60;36.00;;;;;;5140649;28;20546;-80
2022/10/05 14:25:56;;;;;;;0.60;0.50;;;35.00;34.80;;;;;;5142810;28;20486;-80
2022/10/05 14:28:28;;;;;;;0.60;0.50;;;35.60;33.90;;;;;;5144048;28;20455;-78
2022/10/05 14:31:00;;;;;;;0.60;0.50;;;36.40;33.40;;;;;;5143601;27;21033;-81
2022/10/05 14:33:30;;;;;;;0.70;0.60;;;37.70;33.20;;;;;;5144370;28;20502;-80
2022/10/05 14:35:58;;;;;;;0.60;0.53;;;38.60;30.50;;;;;;5142086;28;20427;-80
2022/10/05 14:38:28;;;;;;;0.60;0.50;;;39.10;29.50;;;;;;5144830;28;20439;-79
2022/10/05 14:41:14;;;;;;;0.60;0.50;;;37.70;31.00;;;;;;5140232;27;20839;-77
2022/10/05 14:43:50;;;;;;;0.60;0.60;;;37.80;30.70;;;;;;5145103;28;20427;-80
2022/10/05 14:46:23;;;;;;;0.60;0.50;;;37.90;30.50;;;;;;5145369;28;21042;-79
2022/10/05 14:49:01;;;;;;;0.60;0.50;;;36.90;31.60;;;;;;5140733;28;20435;-78
2022/10/05 14:51:33;;;;;;;1.00;0.50;;;36.70;31.70;;;;;;5145601;27;20462;-81
2022/10/05 14:54:13;;;;;;;0.70;0.50;;;35.80;33.50;;;;;;5142271;28;20462;-79
2022/10/05 14:56:49;;;;;;;0.60;0.47;;;35.40;34.30;;;;;;5135392;28;20523;-79
2022/10/05 14:59:39;;;;;;;0.70;0.57;;;35.80;34.00;;;;;;5133065;28;20466;-78
2022/10/05 15:02:27;;;;;;;0.80;0.50;;;35.90;33.70;;;;;;5132607;27;20459;-79
2022/10/05 15:05:00;;;;;;;0.60;0.50;;;36.00;33.20;;;;;;5133022;28;20427;-79
2022/10/05 15:07:30;;;;;;;0.67;0.50;;;35.80;33.00;;;;;;5133395;28;20435;-79
2022/10/05 15:10:21;;;;;;;0.70;0.50;;;35.70;33.50;;;;;;5134630;28;20442;-78
2022/10/05 15:12:48;;;;;;;0.60;0.50;;;35.10;34.70;;;;;;5130941;27;20471;-78
2022/10/05 15:15:25;;;;;;;0.60;0.50;;;33.60;36.00;;;;;;5133667;28;20945;-78
2022/10/05 15:17:57;;;;;;;0.60;0.50;;;32.60;37.80;;;;;;5131130;28;20769;-79
2022/10/05 15:20:30;;;;;;;0.60;0.60;;;31.70;38.40;;;;;;5138691;27;20479;-79
2022/10/05 15:23:06;;;;;;;0.70;0.57;;;30.70;40.10;;;;;;5134061;28;20428;-78
2022/10/05 15:25:41;;;;;;;0.60;0.50;;;29.70;40.90;;;;;;5132040;28;20431;-78
2022/10/05 15:28:20;;;;;;;0.60;0.50;;;28.70;42.50;;;;;;5134831;28;20464;-78
2022/10/05 15:30:58;;;;;;;0.67;0.50;;;27.90;43.40;;;;;;5130322;28;20492;-79
2022/10/05 15:33:34;;;;;;;0.70;0.60;;;27.10;44.80;;;;;;5124272;28;20515;-80
2022/10/05 15:36:08;;;;;;;0.70;0.50;;;26.40;46.10;;;;;;5116754;28;20438;-76
2022/10/05 15:38:43;;;;;;;0.70;0.50;;;25.90;47.20;;;;;;5116709;28;20432;-76
2022/10/05 15:41:17;;;;;;;0.60;0.50;;;25.60;48.30;;;;;;5116454;28;20516;-77
2022/10/05 15:44:02;;;;;;;0.70;0.60;;;25.00;48.00;;;;;;5117669;28;20481;-79
2022/10/05 15:46:33;;;;;;;0.60;0.53;;;24.80;49.20;;;;;;5118283;28;20423;-77
2022/10/05 15:49:13;;;;;;;0.63;0.60;;;24.50;49.70;;;;;;5117545;28;20420;-79
2022/10/05 15:51:52;;;;;;;0.80;0.60;;;24.20;50.40;;;;;;5118718;28;20554;-78
2022/10/05 15:54:42;;;;;;;0.70;0.60;;;24.00;51.70;;;;;;5116923;28;20432;-79
2022/10/05 15:57:20;;;;;;;0.70;0.57;;;23.80;51.00;;;;;;5120186;28;20432;-79
2022/10/05 15:59:56;;;;;;;0.80;0.60;;;23.70;51.50;;;;;;5118788;28;20468;-78
2022/10/05 16:02:29;;;;;;;0.60;0.50;;;23.60;52.10;;;;;;5119523;28;20486;-79
2022/10/05 16:05:04;;;;;;;0.60;0.60;;;23.60;52.00;;;;;;5120748;28;20429;-79
2022/10/05 16:10:24;;;;;;;0.60;0.50;;;23.70;52.60;;;;;;5118680;28;20399;-79
2022/10/05 16:13:09;;;;;;;0.60;0.50;;;23.80;51.60;;;;;;5116881;28;20479;-78
2022/10/05 16:15:42;;;;;;;0.80;0.60;;;23.80;51.60;;;;;;5116822;28;20427;-77
2022/10/05 16:18:37;;;;;;;0.60;0.50;;;23.70;52.00;;;;;;5116423;28;20420;-78
2022/10/05 16:21:14;;;;;;;0.60;0.50;;;23.80;51.80;;;;;;5118226;28;20840;-77
2022/10/05 16:23:52;;;;;;;0.60;0.50;;;23.70;51.40;;;;;;5116288;28;20443;-78
2022/10/05 16:26:31;;;;;;;0.70;0.60;;;23.50;52.00;;;;;;5117116;28;20432;-78
2022/10/05 16:29:05;;;;;;;1.20;0.50;;;23.40;52.40;;;;;;5117606;28;20428;-79
2022/10/05 16:31:37;;;;;;;0.70;0.60;;;23.30;52.70;;;;;;5116250;28;20591;-78
2022/10/05 16:34:16;;;;;;;0.60;0.50;;;23.10;52.80;;;;;;5116209;28;20420;-78
2022/10/05 16:36:54;;;;;;;0.60;0.60;;;23.10;53.70;;;;;;5118764;28;20435;-79
2022/10/05 16:40:04;;;;;;;0.60;0.53;;;23.10;52.80;;;;;;5117542;28;20440;-80
2022/10/05 16:42:48;;;;;;;0.60;0.60;;;22.90;53.80;;;;;;5114834;28;20468;-78
2022/10/05 16:45:33;;;;;;;0.80;0.63;;;22.90;53.50;;;;;;5115672;28;20432;-78
2022/10/05 16:48:08;;;;;;;0.60;0.50;;;22.90;53.80;;;;;;5116624;28;20463;-78
2022/10/05 16:50:43;;;;;;;0.60;0.50;;;23.00;54.70;;;;;;5119141;28;20428;-77
2022/10/05 16:53:17;;;;;;;0.60;0.50;;;23.00;54.40;;;;;;5116840;28;20408;-77
2022/10/05 16:55:48;;;;;;;0.60;0.50;;;23.00;53.60;;;;;;5117252;28;20440;-76
2022/10/05 16:58:20;;;;;;;0.60;0.50;;;22.90;54.30;;;;;;5116614;28;20424;-78
2022/10/05 17:01:08;;;;;;;0.60;0.50;;;22.90;53.50;;;;;;5118662;28;20479;-77
2022/10/05 17:03:50;;;;;;;0.60;0.53;;;22.80;54.50;;;;;;5123140;28;20435;-77
2022/10/05 17:06:35;;;;;;;0.70;0.60;;;22.70;54.90;;;;;;5121220;28;20453;-77
2022/10/05 17:09:21;;;;;;;0.70;0.50;;;22.70;55.40;;;;;;5121973;28;20440;-77